»·PEaware :: SKW3114 KMCI-KPHX

SKW3114 :: KMCI-KPHX

FLIGHT INFORMATION

Flight Status: Arrived
Operator:
SkyWest Airlines
More flights by this operator :: More flights under this callsign
Pilot: Leo L. (42155)
Aircraft: EMBRAER EMB-170/175
(E170)
More flights by this aircraft type
Origin: KMCI Kansas City Intl
United States
Destination: KPHX Phoenix Sky Harbor Intl
United States
More flights between these airports :: More routes between these airports
Route: WL5 SLN GCK CIM ZUN EAGUL6
File this flight plan on PilotEdge
Remarks: RMK / SIMBRIEF
Altitude:
(Current/Filed)
36,000ft
Speed:
(Current/Filed)
443kts
Departed: 01-Apr-23 07:04 PM
Arrived: 01-Apr-23 09:06 PM
Distance/Time
Traveled:
904nm/2:02
Distance/Time
To Go:
Arrived

Flight Plot

Page will automatically refresh every two minutes.

Flight plan parsing failed; only flown route is shown


Map Options




Map Legend


Flown Route
Filed Route
Departure Airport
Arrival Airport
Navaid (VOR, NDB)
Fix

Horizontal Profiles

Position Reports

Time Latitude Longitude Heading Altitude Ground
Speed
01-Apr-23 19:02 38.512697 -98.935002 250 36051ft 349kts
01-Apr-23 19:03 38.475636 -99.050027 250 36042ft 350kts
01-Apr-23 19:05 38.432205 -99.184289 250 36037ft 350kts
01-Apr-23 19:06 38.394792 -99.299438 250 36024ft 350kts
01-Apr-23 19:07 38.357358 -99.414215 250 36017ft 350kts
01-Apr-23 19:07 38.326082 -99.509714 250 36015ft 349kts
01-Apr-23 19:08 38.288580 -99.623838 250 36005ft 349kts
01-Apr-23 19:09 38.251055 -99.737581 250 36022ft 347kts
01-Apr-23 19:10 38.213153 -99.852111 248 36017ft 356kts
01-Apr-23 19:12 38.168230 -99.987051 248 36018ft 354kts
01-Apr-23 19:12 38.135924 -100.083780 248 36015ft 354kts
01-Apr-23 19:13 38.097304 -100.198967 248 35993ft 356kts
01-Apr-23 19:14 38.058208 -100.315120 248 35973ft 356kts
01-Apr-23 19:15 38.019026 -100.431078 248 35972ft 358kts
01-Apr-23 19:16 37.979575 -100.547370 248 35963ft 355kts
01-Apr-23 19:17 37.940413 -100.662324 248 35968ft 357kts
01-Apr-23 19:18 37.901964 -100.778190 248 35973ft 356kts
01-Apr-23 19:19 37.864503 -100.894549 249 35976ft 357kts
01-Apr-23 19:20 37.826688 -101.011592 249 35974ft 358kts
01-Apr-23 19:21 37.788827 -101.128309 249 35967ft 360kts
01-Apr-23 19:22 37.750599 -101.245667 249 35955ft 361kts
01-Apr-23 19:23 37.712026 -101.363610 248 35949ft 363kts
01-Apr-23 19:24 37.673173 -101.481919 248 35947ft 364kts
01-Apr-23 19:25 37.634209 -101.600088 248 35945ft 366kts
01-Apr-23 19:26 37.594962 -101.718622 248 35959ft 366kts
01-Apr-23 19:27 37.555357 -101.837760 248 35966ft 367kts
01-Apr-23 19:28 37.519494 -101.945217 248 35981ft 366kts
01-Apr-23 19:29 37.479949 -102.063268 248 35949ft 367kts
01-Apr-23 19:30 37.440020 -102.181965 248 35939ft 367kts
01-Apr-23 19:31 37.400141 -102.300042 248 35931ft 366kts
01-Apr-23 19:32 37.360337 -102.417445 248 35928ft 364kts
01-Apr-23 19:33 37.320376 -102.534763 248 35927ft 363kts
01-Apr-23 19:34 37.280630 -102.651107 247 35924ft 363kts
01-Apr-23 19:35 37.240537 -102.767956 247 35946ft 363kts
01-Apr-23 19:36 37.200410 -102.884441 247 35953ft 362kts
01-Apr-23 19:37 37.160293 -103.000452 247 35962ft 362kts
01-Apr-23 19:38 37.120094 -103.116250 247 35987ft 362kts
01-Apr-23 19:39 37.079801 -103.231868 247 36002ft 362kts
01-Apr-23 19:40 37.039379 -103.347415 247 36001ft 362kts
01-Apr-23 19:41 36.998961 -103.462508 247 35998ft 361kts
01-Apr-23 19:42 36.958415 -103.577526 247 35996ft 360kts
01-Apr-23 19:43 36.917972 -103.691795 247 36009ft 358kts
01-Apr-23 19:44 36.877620 -103.805452 247 36015ft 357kts
01-Apr-23 19:45 36.837340 -103.918403 247 36013ft 355kts
01-Apr-23 19:46 36.796892 -104.031464 247 36033ft 358kts
01-Apr-23 19:47 36.756360 -104.144292 247 36056ft 356kts
01-Apr-23 19:48 36.715773 -104.256882 247 36060ft 355kts
01-Apr-23 19:49 36.675225 -104.368979 246 36059ft 355kts
01-Apr-23 19:50 36.634572 -104.480912 247 36056ft 355kts
01-Apr-23 19:51 36.593760 -104.592899 247 36054ft 356kts
01-Apr-23 19:52 36.552880 -104.704656 246 36083ft 357kts
01-Apr-23 19:53 36.511508 -104.817369 246 36134ft 358kts
01-Apr-23 19:54 36.471779 -104.931104 248 36192ft 358kts
01-Apr-23 19:55 36.433724 -105.045266 248 36191ft 359kts
01-Apr-23 19:56 36.395507 -105.159520 248 36189ft 358kts
01-Apr-23 19:57 36.357176 -105.273702 247 36187ft 358kts
01-Apr-23 19:58 36.318621 -105.388074 247 36185ft 358kts
01-Apr-23 19:59 36.280053 -105.502076 247 36187ft 357kts
01-Apr-23 20:00 36.241562 -105.615409 247 36180ft 356kts
01-Apr-23 20:01 36.202944 -105.728690 247 36195ft 355kts
01-Apr-23 20:02 36.164422 -105.841271 247 36192ft 354kts
01-Apr-23 20:03 36.125857 -105.953561 247 36185ft 353kts
01-Apr-23 20:04 36.087296 -106.065426 247 36179ft 353kts
01-Apr-23 20:05 36.048503 -106.177555 247 36176ft 354kts
01-Apr-23 20:06 36.009570 -106.289673 247 36174ft 355kts
01-Apr-23 20:07 35.970543 -106.401650 247 36170ft 353kts
01-Apr-23 20:08 35.931549 -106.513153 246 36165ft 354kts
01-Apr-23 20:09 35.892363 -106.624763 246 36169ft 354kts
01-Apr-23 20:10 35.852991 -106.736485 246 36181ft 355kts
01-Apr-23 20:11 35.813378 -106.848545 246 36179ft 355kts
01-Apr-23 20:12 35.773673 -106.960378 246 36173ft 357kts
01-Apr-23 20:13 35.733541 -107.073047 246 36163ft 358kts
01-Apr-23 20:14 35.693541 -107.184943 246 36164ft 360kts
01-Apr-23 20:15 35.652930 -107.298139 246 36161ft 361kts
01-Apr-23 20:16 35.612041 -107.411694 246 36161ft 363kts
01-Apr-23 20:17 35.570902 -107.525528 246 36157ft 364kts
01-Apr-23 20:18 35.529597 -107.639415 246 36155ft 364kts
01-Apr-23 20:19 35.487991 -107.753717 245 36176ft 365kts
01-Apr-23 20:20 35.446364 -107.867654 245 36185ft 365kts
01-Apr-23 20:21 35.404630 -107.981478 245 36195ft 364kts
01-Apr-23 20:22 35.362425 -108.096172 245 36196ft 369kts
01-Apr-23 20:23 35.320032 -108.210982 245 36184ft 369kts
01-Apr-23 20:24 35.277552 -108.325577 245 36176ft 369kts
01-Apr-23 20:25 35.234979 -108.440028 245 36174ft 369kts
01-Apr-23 20:26 35.192116 -108.554860 245 36172ft 371kts
01-Apr-23 20:27 35.149263 -108.669245 244 36183ft 370kts
01-Apr-23 20:28 35.106042 -108.784182 244 36182ft 371kts
01-Apr-23 20:29 35.062702 -108.899068 244 36180ft 372kts
01-Apr-23 20:30 35.019153 -109.014049 244 36177ft 373kts
01-Apr-23 20:31 34.975382 -109.129259 244 36171ft 375kts
01-Apr-23 20:32 34.932726 -109.245366 245 36166ft 376kts
01-Apr-23 20:33 34.890244 -109.361783 244 36172ft 377kts
01-Apr-23 20:34 34.847558 -109.478303 244 36173ft 376kts
01-Apr-23 20:35 34.804795 -109.594668 244 36173ft 376kts
01-Apr-23 20:36 34.762060 -109.710461 244 36185ft 375kts
01-Apr-23 20:37 34.719222 -109.826076 244 36187ft 374kts
01-Apr-23 20:38 34.676453 -109.941225 243 36185ft 373kts
01-Apr-23 20:39 34.633234 -110.057110 243 36180ft 380kts
01-Apr-23 20:40 34.589688 -110.173515 243 36173ft 378kts
01-Apr-23 20:41 34.545892 -110.290171 243 34720ft 382kts
01-Apr-23 20:42 34.501587 -110.407708 243 33193ft 384kts
01-Apr-23 20:43 34.456803 -110.526084 244 33168ft 387kts
01-Apr-23 20:44 34.411593 -110.645123 244 32644ft 392kts
01-Apr-23 20:45 34.366300 -110.763913 244 30655ft 387kts
01-Apr-23 20:46 34.299985 -110.865500 228 28658ft 387kts
01-Apr-23 20:47 34.227089 -110.959841 228 26637ft 378kts
01-Apr-23 20:48 34.156972 -111.050242 227 24602ft 360kts
01-Apr-23 20:49 34.088811 -111.137910 227 22640ft 354kts
01-Apr-23 20:50 34.022283 -111.223255 227 20727ft 342kts
01-Apr-23 20:51 33.958230 -111.305354 226 18798ft 328kts
01-Apr-23 20:52 33.897003 -111.384576 226 16875ft 320kts
01-Apr-23 20:53 33.836706 -111.462712 226 15253ft 316kts
01-Apr-23 20:54 33.777139 -111.539725 226 13646ft 311kts
01-Apr-23 20:55 33.718380 -111.615446 226 12038ft 306kts
01-Apr-23 20:56 33.661442 -111.688138 226 10422ft 292kts
01-Apr-23 20:57 33.606750 -111.756864 226 8935ft 277kts
01-Apr-23 20:58 33.554363 -111.821907 226 7521ft 265kts
01-Apr-23 20:59 33.515730 -111.893349 255 6155ft 250kts
01-Apr-23 21:00 33.502112 -111.974419 260 4759ft 246kts
01-Apr-23 21:01 33.491412 -112.049363 260 3546ft 201kts
01-Apr-23 21:02 33.458717 -112.081336 165 2450ft 159kts
01-Apr-23 21:03 33.441085 -112.039952 93 1379ft 147kts
01-Apr-23 21:04 33.440913 -111.999857 92 1135ft 60kts
01-Apr-23 21:05 33.437811 -111.993012 185 1132ft 11kts
01-Apr-23 21:06 33.437262 -111.993793 270 1131ft 0kts

Navigation Log

Ident Type
Flight plan parsing failed, navigation log unavailable